This is the latest recevied weather packets stored in our database for station/object KO5MO-4. If no packets are shown the sender has not sent any weather packets the latest 1 day(s).
| Time | Temp. | Humidity | Pressure | Rain* | Wind** | Luminosity | Snow |
|---|---|---|---|---|---|---|---|
| 1778067282 | 14.44° C | 49% | 1007.5 hPa | 0 mm | - | - | - |
| 1778066982 | 14.44° C | 49% | 1007.5 hPa | 0 mm | - | - | - |
| 1778066682 | 14.44° C | 49% | 1007.5 hPa | 0 mm | - | - | - |
| 1778066382 | 14.44° C | 49% | 1007.5 hPa | 0 mm | - | - | - |
| 1778066082 | 14.44° C | 49% | 1007.5 hPa | 0 mm | - | - | - |
| 1778065482 | 14.44° C | 50% | 1007.5 hPa | 0 mm | - | - | - |
| 1778065182 | 14.44° C | 50% | 1007.5 hPa | 0 mm | - | - | - |
| 1778064882 | 13.89° C | 50% | 1007.5 hPa | 0 mm | - | - | - |
| 1778064282 | 13.89° C | 52% | 1007.5 hPa | 0 mm | - | - | - |
| 1778063082 | 13.33° C | 53% | 1007.5 hPa | 0 mm | - | - | - |
| 1778062782 | 13.33° C | 52% | 1007.5 hPa | 0 mm | - | - | - |
| 1778061582 | 13.89° C | 51% | 1007.5 hPa | 0 mm | - | - | - |
| 1778061282 | 13.89° C | 50% | 1007.5 hPa | 0 mm | - | - | - |
| 1778060382 | 13.89° C | 50% | 1007.5 hPa | 0 mm | - | - | - |
| 1778059482 | 13.89° C | 50% | 1007.5 hPa | 0 mm | - | - | - |
| 1778059182 | 13.89° C | 49% | 1007.5 hPa | 0 mm | - | - | - |
| 1778058882 | 14.44° C | 48% | 1007.5 hPa | 0 mm | - | - | - |
| 1778058582 | 14.44° C | 48% | 1007.5 hPa | 0 mm | - | - | - |
| 1778057982 | 15° C | 46% | 1007.5 hPa | 0 mm | - | - | - |
| 1778057682 | 15° C | 46% | 1007.5 hPa | 0 mm | - | - | - |
| 1778057382 | 15° C | 46% | 1007.5 hPa | 0 mm | - | - | - |
| 1778056482 | 16.11° C | 43% | 1007.5 hPa | 0 mm | - | - | - |
| 1778055582 | 16.67° C | 42% | 1007.5 hPa | 0 mm | - | - | - |
| 1778054382 | 17.22° C | 40% | 1007.5 hPa | 0 mm | - | - | - |
| 1778054082 | 17.78° C | 40% | 1007.5 hPa | 0 mm | - | - | - |
* Rain latest hour (hover to see other rain measurements)
** Current wind speed in m/s (hover to see current wind gust speed)